TimeEST,TemperatureF,Dew PointF,Humidity,Sea Level PressureIn,VisibilityMPH,Wind Direction,Wind SpeedMPH,Gust SpeedMPH,PrecipitationIn,Events,Conditions,WindDirDegrees,DateUTC
12:15 AM,66.2,62.6,88,30.06,10.0,South,4.6,-,N/A,,Clear,190,2011-12-07 05:15:00
12:35 AM,66.2,62.6,88,30.05,10.0,South,5.8,-,N/A,,Clear,190,2011-12-07 05:35:00
12:55 AM,64.4,62.6,94,30.05,10.0,South,5.8,-,N/A,,Clear,190,2011-12-07 05:55:00
1:15 AM,66.2,62.6,88,30.04,10.0,South,6.9,-,N/A,,Clear,190,2011-12-07 06:15:00
1:35 AM,66.2,62.6,88,30.04,10.0,SSW,5.8,-,N/A,,Clear,200,2011-12-07 06:35:00
1:55 AM,66.2,62.6,88,30.03,10.0,SSW,6.9,-,N/A,,Clear,200,2011-12-07 06:55:00
2:15 AM,64.4,62.6,94,30.03,10.0,SSW,6.9,-,N/A,,Clear,210,2011-12-07 07:15:00
2:35 AM,64.4,62.6,94,30.03,10.0,SSW,4.6,-,N/A,,Clear,210,2011-12-07 07:35:00
2:55 AM,64.4,62.6,94,30.03,10.0,South,8.1,-,N/A,,Scattered Clouds,190,2011-12-07 07:55:00
3:15 AM,64.4,62.6,94,30.02,10.0,South,9.2,-,N/A,,Scattered Clouds,180,2011-12-07 08:15:00
3:35 AM,64.4,62.6,94,30.01,10.0,SSW,9.2,-,N/A,,Clear,200,2011-12-07 08:35:00
3:55 AM,64.4,62.6,94,30.01,10.0,SSW,8.1,-,N/A,,Clear,210,2011-12-07 08:55:00
4:15 AM,64.4,62.6,94,30.01,10.0,South,9.2,-,N/A,,Clear,190,2011-12-07 09:15:00
4:35 AM,64.4,62.6,94,30.00,10.0,South,8.1,-,N/A,,Clear,190,2011-12-07 09:35:00
4:55 AM,64.4,62.6,94,29.99,10.0,SSW,9.2,-,N/A,,Clear,200,2011-12-07 09:55:00
5:15 AM,64.4,60.8,88,29.99,10.0,SSW,8.1,-,N/A,,Clear,200,2011-12-07 10:15:00
5:35 AM,64.4,60.8,88,29.99,10.0,SSW,8.1,-,N/A,,Clear,210,2011-12-07 10:35:00
5:55 AM,64.4,60.8,88,29.99,10.0,SSW,9.2,-,N/A,,Clear,200,2011-12-07 10:55:00
6:15 AM,64.4,60.8,88,29.99,10.0,SSW,9.2,-,N/A,,Clear,210,2011-12-07 11:15:00
6:35 AM,64.4,60.8,88,29.99,10.0,South,10.4,-,N/A,,Clear,190,2011-12-07 11:35:00
6:55 AM,64.4,60.8,88,29.99,10.0,SSW,9.2,-,N/A,,Clear,200,2011-12-07 11:55:00
7:15 AM,64.4,60.8,88,29.99,10.0,South,9.2,-,N/A,,Clear,190,2011-12-07 12:15:00
7:35 AM,64.4,60.8,88,29.99,10.0,South,9.2,-,N/A,,Clear,190,2011-12-07 12:35:00
7:55 AM,64.4,60.8,88,29.99,10.0,South,9.2,-,N/A,,Clear,190,2011-12-07 12:55:00
8:15 AM,66.2,60.8,83,29.99,10.0,South,9.2,-,N/A,,Clear,190,2011-12-07 13:15:00
8:35 AM,68.0,60.8,78,29.98,10.0,SSW,11.5,17.3,N/A,,Clear,200,2011-12-07 13:35:00
8:55 AM,68.0,60.8,78,29.98,10.0,South,10.4,17.3,N/A,,Clear,190,2011-12-07 13:55:00
9:15 AM,69.8,60.8,73,29.98,10.0,South,12.7,16.1,N/A,,Clear,190,2011-12-07 14:15:00
9:35 AM,71.6,60.8,69,29.97,10.0,South,16.1,-,N/A,,Clear,190,2011-12-07 14:35:00
9:55 AM,71.6,60.8,69,29.97,10.0,SSW,15.0,21.9,N/A,,Clear,200,2011-12-07 14:55:00
10:15 AM,73.4,60.8,65,29.96,10.0,SSW,12.7,-,N/A,,Clear,200,2011-12-07 15:15:00
10:35 AM,73.4,60.8,65,29.95,10.0,SSW,16.1,25.3,N/A,,Clear,200,2011-12-07 15:35:00
10:55 AM,75.2,60.8,61,29.94,10.0,SW,16.1,19.6,N/A,,Clear,220,2011-12-07 15:55:00
11:15 AM,77.0,60.8,57,29.93,10.0,SSW,11.5,21.9,N/A,,Scattered Clouds,210,2011-12-07 16:15:00
11:35 AM,77.0,60.8,57,29.91,10.0,SSW,16.1,27.6,N/A,,Scattered Clouds,210,2011-12-07 16:35:00
11:55 AM,78.8,59.0,51,29.90,10.0,SSW,19.6,27.6,N/A,,Clear,210,2011-12-07 16:55:00
12:15 PM,78.8,59.0,51,29.88,10.0,SSW,16.1,26.5,N/A,,Scattered Clouds,200,2011-12-07 17:15:00
12:35 PM,78.8,59.0,51,29.85,10.0,SSW,18.4,27.6,N/A,,Scattered Clouds,200,2011-12-07 17:35:00
12:55 PM,78.8,59.0,51,29.84,10.0,SW,21.9,31.1,N/A,,Scattered Clouds,220,2011-12-07 17:55:00
1:15 PM,78.8,60.8,54,29.83,10.0,SSW,17.3,23.0,N/A,,Mostly Cloudy,210,2011-12-07 18:15:00
1:35 PM,78.8,60.8,54,29.81,10.0,SSW,17.3,26.5,N/A,,Overcast,210,2011-12-07 18:35:00
1:55 PM,77.0,60.8,57,29.83,10.0,WSW,25.3,34.5,N/A,,Overcast,240,2011-12-07 18:55:00
2:15 PM,68.0,64.4,88,29.83,2.5,SW,19.6,32.2,N/A,,Overcast,230,2011-12-07 19:15:00
2:35 PM,68.0,64.4,88,29.83,10.0,WSW,19.6,-,N/A,,Overcast,240,2011-12-07 19:35:00
2:55 PM,68.0,64.4,88,29.84,7.0,WSW,19.6,35.7,N/A,,Overcast,250,2011-12-07 19:55:00
3:15 PM,66.2,62.6,88,29.87,2.5,West,25.3,35.7,N/A,,Overcast,270,2011-12-07 20:15:00
3:35 PM,57.2,53.6,88,29.89,3.0,West,15.0,35.7,N/A,,Overcast,280,2011-12-07 20:35:00
3:55 PM,55.4,51.8,88,29.91,7.0,West,20.7,29.9,N/A,,Overcast,270,2011-12-07 20:55:00
4:15 PM,55.4,51.8,88,29.92,10.0,West,15.0,25.3,N/A,,Overcast,270,2011-12-07 21:15:00
4:35 PM,55.4,50.0,82,29.93,10.0,West,16.1,27.6,N/A,,Overcast,270,2011-12-07 21:35:00
4:55 PM,53.6,50.0,88,29.94,10.0,West,16.1,21.9,N/A,,Overcast,280,2011-12-07 21:55:00
5:15 PM,53.6,48.2,82,29.95,10.0,West,17.3,20.7,N/A,,Overcast,270,2011-12-07 22:15:00
5:35 PM,53.6,44.6,72,29.97,10.0,West,12.7,21.9,N/A,,Overcast,270,2011-12-07 22:35:00
5:55 PM,51.8,42.8,71,29.98,10.0,West,11.5,23.0,N/A,,Overcast,270,2011-12-07 22:55:00
6:15 PM,51.8,41.0,67,30.00,10.0,West,17.3,25.3,N/A,,Overcast,270,2011-12-07 23:15:00
6:35 PM,50.0,41.0,71,30.01,10.0,West,11.5,23.0,N/A,,Scattered Clouds,280,2011-12-07 23:35:00
6:55 PM,50.0,41.0,71,30.02,10.0,West,12.7,20.7,N/A,,Clear,280,2011-12-07 23:55:00
7:15 PM,48.2,41.0,76,30.03,10.0,West,11.5,18.4,N/A,,Clear,280,2011-12-08 00:15:00
7:35 PM,46.4,37.4,71,30.04,10.0,WNW,13.8,23.0,N/A,,Clear,290,2011-12-08 00:35:00
7:55 PM,46.4,37.4,71,30.06,10.0,West,9.2,17.3,N/A,,Clear,280,2011-12-08 00:55:00
8:15 PM,46.4,37.4,71,30.07,10.0,West,12.7,21.9,N/A,,Clear,270,2011-12-08 01:15:00
8:35 PM,46.4,37.4,71,30.08,10.0,West,9.2,17.3,N/A,,Clear,280,2011-12-08 01:35:00
8:55 PM,44.6,35.6,71,30.09,10.0,West,10.4,18.4,N/A,,Clear,280,2011-12-08 01:55:00
9:15 PM,44.6,35.6,71,30.10,10.0,West,8.1,16.1,N/A,,Clear,270,2011-12-08 02:15:00
9:35 PM,44.6,35.6,71,30.11,10.0,West,9.2,16.1,N/A,,Clear,270,2011-12-08 02:35:00
9:55 PM,44.6,35.6,71,30.11,10.0,West,8.1,18.4,N/A,,Clear,270,2011-12-08 02:55:00
10:15 PM,42.8,35.6,76,30.12,10.0,West,8.1,-,N/A,,Clear,260,2011-12-08 03:15:00
10:35 PM,42.8,35.6,76,30.13,10.0,West,8.1,-,N/A,,Clear,270,2011-12-08 03:35:00
10:55 PM,42.8,35.6,76,30.13,10.0,West,5.8,-,N/A,,Clear,270,2011-12-08 03:55:00
11:15 PM,42.8,35.6,76,30.13,10.0,West,5.8,-,N/A,,Clear,280,2011-12-08 04:15:00
11:35 PM,42.8,35.6,76,30.13,10.0,West,6.9,-,N/A,,Clear,280,2011-12-08 04:35:00
11:55 PM,41.0,35.6,81,30.14,10.0,West,5.8,-,N/A,,Clear,280,2011-12-08 04:55:00